createdAt,value
2023-02-12T00:00:25.652Z,102560.22
2023-02-12T00:02:57.819Z,102568.16
2023-02-12T00:05:27.795Z,102568.16
2023-02-12T00:07:57.547Z,102561.13
2023-02-12T00:10:27.532Z,102562.00
2023-02-12T00:12:57.268Z,102562.84
2023-02-12T00:15:26.911Z,102560.22
2023-02-12T00:17:59.144Z,102559.31
2023-02-12T00:20:28.759Z,102570.78
2023-02-12T00:22:58.412Z,102561.09
2023-02-12T00:25:28.051Z,102561.97
2023-02-12T00:27:57.778Z,102570.78
2023-02-12T00:30:29.422Z,102571.66
2023-02-12T00:33:01.663Z,102574.28
2023-02-12T00:35:31.279Z,102564.63
2023-02-12T00:38:01.459Z,102562.84
2023-02-12T00:40:31.062Z,102567.25
2023-02-12T00:43:00.647Z,102569.00
2023-02-12T00:45:30.265Z,102565.47
2023-02-12T00:48:03.625Z,102573.41
2023-02-12T00:50:33.219Z,102564.59
2023-02-12T00:53:03.414Z,102561.94
2023-02-12T00:55:33.251Z,102559.31
2023-02-12T00:58:03.189Z,102563.72
2023-02-12T01:00:32.950Z,102564.59
2023-02-12T01:03:05.617Z,102563.72
2023-02-12T01:05:35.282Z,102555.78
2023-02-12T01:08:04.905Z,102558.44
2023-02-12T01:10:35.043Z,102561.94
2023-02-12T01:13:05.066Z,102562.84
2023-02-12T01:15:34.870Z,102554.03
2023-02-12T01:18:07.424Z,102554.03
2023-02-12T01:20:37.012Z,102548.75
2023-02-12T01:23:08.555Z,102550.50
2023-02-12T01:25:38.155Z,102553.13
2023-02-12T01:28:07.939Z,102547.88
2023-02-12T01:30:37.621Z,102551.38
2023-02-12T01:33:09.791Z,102547.84
2023-02-12T01:35:40.347Z,102551.38
2023-02-12T01:38:09.965Z,102552.22
2023-02-12T01:40:40.081Z,102548.72
2023-02-12T01:43:12.781Z,102555.78
2023-02-12T01:45:53.622Z,102552.22
2023-02-12T01:48:29.005Z,102552.22
2023-02-12T01:50:59.362Z,102554.88
2023-02-12T01:53:33.082Z,102546.06
2023-02-12T01:56:04.913Z,102546.94
2023-02-12T01:58:38.274Z,102549.56
2023-02-12T02:01:10.061Z,102549.56
2023-02-12T02:03:42.893Z,102540.75
2023-02-12T02:06:15.241Z,102541.63
2023-02-12T02:08:45.259Z,102546.03
2023-02-12T02:11:27.298Z,102539.84
2023-02-12T02:14:09.937Z,102553.03
2023-02-12T02:16:40.046Z,102556.59
2023-02-12T02:19:18.382Z,102548.66
2023-02-12T02:22:10.482Z,102543.38
2023-02-12T02:25:09.876Z,102539.03
2023-02-12T02:27:44.761Z,102537.25
2023-02-12T02:30:34.785Z,102538.16
2023-02-12T02:33:14.615Z,102538.16
2023-02-12T02:35:50.361Z,102541.69
2023-02-12T02:38:27.147Z,102531.13
2023-02-12T02:41:01.067Z,102535.53
2023-02-12T02:43:32.942Z,102534.66
2023-02-12T02:46:09.063Z,102535.53
2023-02-12T02:48:40.801Z,102532.91
2023-02-12T02:51:15.139Z,102533.75
2023-02-12T02:53:47.841Z,102537.28
2023-02-12T02:56:19.362Z,102539.91
2023-02-12T02:58:53.183Z,102544.28
2023-02-12T03:01:29.586Z,102539.03
2023-02-12T03:04:03.367Z,102539.03
2023-02-12T03:06:38.808Z,102536.38
2023-02-12T03:09:14.529Z,102536.38
2023-02-12T03:11:44.445Z,102541.66
2023-02-12T03:14:16.285Z,102536.38
2023-02-12T03:16:53.385Z,102531.09
2023-02-12T03:19:25.413Z,102534.63
2023-02-12T03:21:59.627Z,102531.97
2023-02-12T03:24:29.671Z,102530.22
2023-02-12T03:27:03.069Z,102531.06
2023-02-12T03:29:32.708Z,102526.69
2023-02-12T03:32:13.576Z,102531.06
2023-02-12T03:34:49.400Z,102524.06
2023-02-12T03:37:22.535Z,102531.97
2023-02-12T03:39:56.295Z,102539.88
2023-02-12T03:42:34.176Z,102528.47
2023-02-12T03:45:07.717Z,102530.22
2023-02-12T03:47:45.836Z,102522.31
2023-02-12T03:50:18.837Z,102524.97
2023-02-12T03:52:49.368Z,102521.41
2023-02-12T03:55:19.519Z,102520.56
2023-02-12T03:57:52.313Z,102527.56
2023-02-12T04:00:24.720Z,102525.84
2023-02-12T04:02:57.643Z,102523.19
2023-02-12T04:05:29.231Z,102517.91
2023-02-12T04:07:59.816Z,102524.94
2023-02-12T04:10:32.963Z,102522.28
2023-02-12T04:13:12.987Z,102530.22
2023-02-12T04:15:57.706Z,102532.81
2023-02-12T04:18:36.851Z,102535.44
2023-02-12T04:21:11.000Z,102539.81
2023-02-12T04:23:43.589Z,102535.41
2023-02-12T04:26:20.458Z,102543.31
2023-02-12T04:28:57.700Z,102548.63
2023-02-12T04:31:32.192Z,102550.41
2023-02-12T04:34:13.119Z,102555.69
2023-02-12T04:36:48.645Z,102553.94
2023-02-12T04:39:20.841Z,102560.13
2023-02-12T04:41:50.507Z,102555.72
2023-02-12T04:44:22.157Z,102559.25
2023-02-12T04:46:51.765Z,102561.03
2023-02-12T04:49:25.588Z,102565.44
2023-02-12T04:51:55.375Z,102562.78
2023-02-12T04:54:26.268Z,102568.06
2023-02-12T04:56:55.859Z,102571.56
2023-02-12T04:59:25.450Z,102568.94
2023-02-12T05:01:55.099Z,102574.25
2023-02-12T05:04:27.357Z,102559.28
2023-02-12T05:06:57.347Z,102569.84
2023-02-12T05:09:26.948Z,102573.38
2023-02-12T05:11:56.739Z,102575.09
2023-02-12T05:14:27.316Z,102569.88
2023-02-12T05:16:56.943Z,102573.38
2023-02-12T05:19:29.206Z,102571.59
2023-02-12T05:21:58.814Z,102571.59
2023-02-12T05:24:28.611Z,102571.59
2023-02-12T05:26:58.232Z,102573.34
2023-02-12T05:29:27.801Z,102573.34
2023-02-12T05:31:57.481Z,102577.75
2023-02-12T05:34:29.924Z,102580.38
2023-02-12T05:36:59.502Z,102574.25
2023-02-12T05:39:29.418Z,102577.75
2023-02-12T05:41:59.116Z,102576.88
2023-02-12T05:44:28.790Z,102575.97
2023-02-12T05:46:58.392Z,102580.38
2023-02-12T05:49:30.627Z,102583.03
2023-02-12T05:52:00.219Z,102588.31
2023-02-12T05:54:32.978Z,102591.81
2023-02-12T05:57:02.574Z,102588.28
2023-02-12T05:59:32.175Z,102587.41
2023-02-12T06:02:01.767Z,102592.69
2023-02-12T06:04:34.046Z,102594.44
2023-02-12T06:07:03.748Z,102592.72
2023-02-12T06:09:33.310Z,102589.22
2023-02-12T06:12:02.888Z,102591.84
2023-02-12T06:14:32.509Z,102584.78
2023-02-12T06:17:02.062Z,102590.97
2023-02-12T06:19:34.287Z,102584.81
2023-02-12T06:22:05.617Z,102579.53
2023-02-12T06:24:35.397Z,102584.81
2023-02-12T06:27:04.991Z,102586.59
2023-02-12T06:29:34.683Z,102587.44
2023-02-12T06:32:04.386Z,102586.59
2023-02-12T06:34:36.678Z,102587.47
2023-02-12T06:37:06.270Z,102587.44
2023-02-12T06:39:35.838Z,102591.88
2023-02-12T06:42:05.458Z,102595.41
2023-02-12T06:44:35.356Z,102598.03
2023-02-12T06:47:05.015Z,102591.00
2023-02-12T06:49:37.215Z,102591.88
2023-02-12T06:52:06.799Z,102596.28
2023-02-12T06:54:36.453Z,102600.66
2023-02-12T06:57:06.206Z,102600.66
2023-02-12T06:59:35.802Z,102608.59
2023-02-12T07:02:05.403Z,102617.38
2023-02-12T07:04:37.605Z,102615.66
2023-02-12T07:07:07.605Z,102617.38
2023-02-12T07:09:37.207Z,102609.50
2023-02-12T07:12:06.898Z,102620.03
2023-02-12T07:14:37.076Z,102622.69
2023-02-12T07:17:07.960Z,102610.38
2023-02-12T07:19:40.355Z,102620.06
2023-02-12T07:22:09.980Z,102613.91
2023-02-12T07:24:39.562Z,102620.06
2023-02-12T07:27:09.186Z,102616.56
2023-02-12T07:29:38.829Z,102620.97
2023-02-12T07:32:08.802Z,102627.09
2023-02-12T07:34:40.992Z,102625.38
2023-02-12T07:37:10.565Z,102619.22
2023-02-12T07:39:40.147Z,102623.63
2023-02-12T07:42:10.047Z,102621.00
2023-02-12T07:44:40.589Z,102631.56
2023-02-12T07:47:10.170Z,102632.44
2023-02-12T07:49:42.382Z,102632.41
2023-02-12T07:52:13.506Z,102624.50
2023-02-12T07:54:43.205Z,102639.47
2023-02-12T07:57:12.799Z,102634.22
2023-02-12T07:59:42.363Z,102636.84
2023-02-12T08:02:12.624Z,102639.50
2023-02-12T08:04:44.901Z,102640.34
2023-02-12T08:07:14.511Z,102643.88
2023-02-12T08:09:44.594Z,102646.50
2023-02-12T08:12:14.274Z,102650.00
2023-02-12T08:14:43.917Z,102649.13
2023-02-12T08:17:13.818Z,102642.06
2023-02-12T08:19:46.211Z,102652.63
2023-02-12T08:22:16.238Z,102653.47
2023-02-12T08:24:46.507Z,102660.53
2023-02-12T08:27:16.583Z,102656.97
2023-02-12T08:29:46.354Z,102659.63
2023-02-12T08:32:17.294Z,102664.06
2023-02-12T08:34:49.988Z,102659.66
2023-02-12T08:37:19.644Z,102664.06
2023-02-12T08:39:49.352Z,102666.72
2023-02-12T08:42:19.441Z,102670.22
2023-02-12T08:44:49.185Z,102670.22
2023-02-12T08:47:18.778Z,102666.69
2023-02-12T08:49:51.126Z,102660.53
2023-02-12T08:52:20.851Z,102669.34
2023-02-12T08:54:50.477Z,102669.31
2023-02-12T08:57:20.038Z,102664.91
2023-02-12T08:59:51.625Z,102665.75
2023-02-12T09:02:21.243Z,102663.97
2023-02-12T09:04:53.395Z,102665.69
2023-02-12T09:07:23.005Z,102665.69
2023-02-12T09:09:52.656Z,102662.13
2023-02-12T09:12:22.242Z,102661.22
2023-02-12T09:14:51.942Z,102665.63
2023-02-12T09:17:21.603Z,102664.69
2023-02-12T09:19:53.745Z,102672.63
2023-02-12T09:22:23.327Z,102681.41
2023-02-12T09:24:52.888Z,102676.94
2023-02-12T09:27:22.467Z,102683.06
2023-02-12T09:29:52.116Z,102680.44
2023-02-12T09:32:21.695Z,102671.53
2023-02-12T09:34:53.852Z,102679.47
2023-02-12T09:37:23.455Z,102679.41
2023-02-12T09:39:53.039Z,102682.00
2023-02-12T09:42:32.810Z,102681.97
2023-02-12T09:45:08.241Z,102680.16
2023-02-12T09:47:42.882Z,102672.13
2023-02-12T09:50:30.448Z,102672.94
2023-02-12T09:53:00.610Z,102669.38
2023-02-12T09:55:33.030Z,102673.78
2023-02-12T09:58:03.980Z,102676.34
2023-02-12T10:00:34.624Z,102672.69
2023-02-12T10:03:06.449Z,102688.50
2023-02-12T10:05:42.288Z,102684.84
2023-02-12T10:08:35.752Z,102682.13
2023-02-12T10:11:19.442Z,102677.56
2023-02-12T10:13:54.374Z,102683.66
2023-02-12T10:16:41.241Z,102680.88
2023-02-12T10:19:24.827Z,102686.91
2023-02-12T10:22:04.103Z,102678.88
2023-02-12T10:24:51.351Z,102665.59
2023-02-12T10:27:27.334Z,102676.16
2023-02-12T10:29:59.659Z,102673.41
2023-02-12T10:32:34.709Z,102670.59
2023-02-12T10:35:05.265Z,102677.56
2023-02-12T10:37:41.921Z,102672.44
2023-02-12T10:40:20.728Z,102668.16
2023-02-12T10:42:51.687Z,102670.91
2023-02-12T10:45:23.403Z,102666.56
2023-02-12T10:47:56.298Z,102672.81
2023-02-12T10:50:33.301Z,102675.47
2023-02-12T10:53:06.230Z,102671.97
2023-02-12T10:55:37.478Z,102670.22
2023-02-12T10:58:08.018Z,102675.56
2023-02-12T11:00:39.251Z,102669.34
2023-02-12T11:03:23.028Z,102668.50
2023-02-12T11:05:54.390Z,102664.09
2023-02-12T11:08:39.127Z,102657.88
2023-02-12T11:11:11.909Z,102665.81
2023-02-12T11:13:43.290Z,102656.06
2023-02-12T11:16:13.403Z,102654.28
2023-02-12T11:18:43.512Z,102663.19
2023-02-12T11:21:14.687Z,102666.69
2023-02-12T11:23:47.128Z,102650.75
2023-02-12T11:26:29.778Z,102654.28
2023-02-12T11:29:01.760Z,102648.94
2023-02-12T11:31:32.985Z,102643.59
2023-02-12T11:34:19.704Z,102638.25
2023-02-12T11:36:51.790Z,102639.09
2023-02-12T11:39:25.938Z,102635.50
2023-02-12T11:41:55.883Z,102635.41
2023-02-12T11:44:27.858Z,102630.16
2023-02-12T11:46:59.782Z,102632.84
2023-02-12T11:49:32.306Z,102626.59
2023-02-12T11:52:04.481Z,102623.81
2023-02-12T11:54:41.435Z,102620.16
2023-02-12T11:57:26.743Z,102628.94
2023-02-12T11:59:57.326Z,102627.34
2023-02-12T12:02:30.550Z,102625.72
2023-02-12T12:05:09.390Z,102624.06
2023-02-12T12:07:39.955Z,102617.88
2023-02-12T12:10:17.589Z,102622.31
2023-02-12T12:12:51.467Z,102616.97
2023-02-12T12:15:38.386Z,102612.53
2023-02-12T12:18:36.722Z,102616.06
2023-02-12T12:21:12.278Z,102613.31
2023-02-12T12:23:45.404Z,102606.09
2023-02-12T12:26:26.041Z,102605.91
2023-02-12T12:29:00.347Z,102598.72
2023-02-12T12:31:33.313Z,102596.97
2023-02-12T12:34:07.860Z,102592.50
2023-02-12T12:37:06.769Z,102594.28
2023-02-12T12:39:45.389Z,102589.03
2023-02-12T12:42:45.017Z,102581.13
2023-02-12T12:45:32.128Z,102583.75
2023-02-12T12:48:11.950Z,102579.34
2023-02-12T12:51:01.781Z,102575.03
2023-02-12T12:53:41.771Z,102571.56
2023-02-12T12:56:32.250Z,102562.69
2023-02-12T12:59:15.770Z,102561.81
2023-02-12T13:02:04.212Z,102559.16
2023-02-12T13:04:53.805Z,102566.25
2023-02-12T13:07:37.577Z,102546.81
2023-02-12T13:10:18.246Z,102546.81
2023-02-12T13:13:05.305Z,102544.19
2023-02-12T13:15:42.026Z,102545.88
2023-02-12T13:18:20.969Z,102543.09
2023-02-12T13:20:54.333Z,102543.88
2023-02-12T13:23:30.957Z,102535.94
2023-02-12T13:26:06.211Z,102538.66
2023-02-12T13:28:39.379Z,102541.28
2023-02-12T13:34:07.638Z,102535.06
2023-02-12T13:36:39.718Z,102536.84
2023-02-12T13:39:17.465Z,102538.81
2023-02-12T13:41:50.918Z,102527.47
2023-02-12T13:44:28.137Z,102532.88
2023-02-12T13:47:05.424Z,102524.06
2023-02-12T13:49:44.495Z,102529.50
2023-02-12T13:52:20.100Z,102520.72
2023-02-12T13:54:56.127Z,102520.75
2023-02-12T13:57:25.764Z,102516.34
2023-02-12T13:59:58.231Z,102513.63
2023-02-12T14:02:52.722Z,102514.44
2023-02-12T14:05:26.444Z,102515.25
2023-02-12T14:07:57.818Z,102515.22
2023-02-12T14:10:31.001Z,102517.84
2023-02-12T14:13:12.637Z,102514.38
2023-02-12T14:15:45.103Z,102510.91
2023-02-12T14:18:30.178Z,102510.97
2023-02-12T14:21:46.973Z,102510.16
2023-02-12T14:24:54.475Z,102514.75
2023-02-12T14:27:30.855Z,102512.22
2023-02-12T14:30:18.906Z,102513.19
2023-02-12T14:33:19.992Z,102516.84
2023-02-12T14:35:54.352Z,102516.97
2023-02-12T14:39:02.935Z,102524.13
2023-02-12T14:41:37.892Z,102526.84
2023-02-12T14:44:47.388Z,102515.38
2023-02-12T14:47:50.069Z,102526.91
2023-02-12T14:50:26.307Z,102522.53
2023-02-12T14:53:03.183Z,102518.94
2023-02-12T14:55:34.898Z,102521.63
2023-02-12T14:58:07.764Z,102512.81
2023-02-12T15:00:42.449Z,102515.47
2023-02-12T15:03:22.413Z,102513.66
2023-02-12T15:05:58.446Z,102518.97
2023-02-12T15:08:36.835Z,102512.81
2023-02-12T15:11:17.315Z,102510.16
2023-02-12T15:13:52.183Z,102513.66
2023-02-12T15:16:30.337Z,102508.34
2023-02-12T15:19:03.620Z,102504.75
2023-02-12T15:21:34.719Z,102502.09
2023-02-12T15:24:09.414Z,102502.06
2023-02-12T15:26:42.746Z,102498.53
2023-02-12T15:29:23.283Z,102499.38
2023-02-12T15:31:54.321Z,102495.88
2023-02-12T15:34:26.144Z,102490.59
2023-02-12T15:36:55.906Z,102492.38
2023-02-12T15:39:29.020Z,102482.66
2023-02-12T15:41:58.684Z,102490.59
2023-02-12T15:44:30.413Z,102490.59
2023-02-12T15:47:02.960Z,102493.22
2023-02-12T15:49:35.615Z,102483.53
2023-02-12T15:52:07.946Z,102485.34
2023-02-12T15:54:41.326Z,102485.41
2023-02-12T15:57:15.456Z,102484.63
2023-02-12T15:59:45.045Z,102482.94
2023-02-12T16:02:22.607Z,102481.28
2023-02-12T16:04:52.376Z,102481.34
2023-02-12T16:07:22.334Z,102483.16
2023-02-12T16:09:55.306Z,102479.75
2023-02-12T16:12:28.046Z,102474.47
2023-02-12T16:15:00.519Z,102480.72
2023-02-12T16:17:32.099Z,102472.84
2023-02-12T16:20:04.237Z,102480.88
2023-02-12T16:22:36.920Z,102480.00
2023-02-12T16:25:17.291Z,102477.38
2023-02-12T16:27:56.942Z,102470.31
2023-02-12T16:30:29.966Z,102477.41
2023-02-12T16:33:00.527Z,102485.34
2023-02-12T16:35:33.915Z,102481.84
2023-02-12T16:38:07.231Z,102484.53
2023-02-12T16:40:40.461Z,102486.34
2023-02-12T16:43:28.952Z,102487.25
2023-02-12T16:46:06.722Z,102489.94
2023-02-12T16:48:41.379Z,102486.47
2023-02-12T16:51:23.962Z,102495.31
2023-02-12T16:53:54.946Z,102493.56
2023-02-12T16:56:29.395Z,102495.38
2023-02-12T16:59:00.946Z,102500.69
2023-02-12T17:01:32.206Z,102500.69
2023-02-12T17:04:04.226Z,102498.88
2023-02-12T17:06:34.670Z,102504.19
2023-02-12T17:09:04.266Z,102503.25
2023-02-12T17:11:36.507Z,102507.69
2023-02-12T17:14:06.123Z,102501.50
2023-02-12T17:16:35.725Z,102509.44
2023-02-12T17:19:05.317Z,102502.34
2023-02-12T17:21:38.423Z,102502.34
2023-02-12T17:24:10.146Z,102510.28
2023-02-12T17:26:42.357Z,102512.94
2023-02-12T17:29:11.980Z,102510.28
2023-02-12T17:31:41.768Z,102514.72
2023-02-12T17:34:11.544Z,102511.19
2023-02-12T17:36:41.133Z,102513.84
2023-02-12T17:39:11.835Z,102514.72
2023-02-12T17:41:46.258Z,102512.94
2023-02-12T17:44:16.351Z,102520.91
2023-02-12T17:46:46.053Z,102520.06
2023-02-12T17:49:15.651Z,102516.59
2023-02-12T17:51:45.427Z,102517.50
2023-02-12T17:54:17.629Z,102525.50
2023-02-12T17:56:49.815Z,102521.09
2023-02-12T17:59:19.421Z,102521.13
2023-02-12T18:01:49.059Z,102524.66
2023-02-12T18:04:18.661Z,102529.06
2023-02-12T18:06:48.291Z,102528.22
2023-02-12T18:09:17.856Z,102527.31
2023-02-12T18:11:50.145Z,102532.59
2023-02-12T18:14:21.536Z,102528.22
2023-02-12T18:16:51.197Z,102520.25
2023-02-12T18:19:20.819Z,102522.94
2023-02-12T18:21:50.458Z,102524.72
2023-02-12T18:24:20.059Z,102523.84
2023-02-12T18:26:52.822Z,102526.50
2023-02-12T18:29:22.423Z,102521.22
2023-02-12T18:31:52.081Z,102520.34
2023-02-12T18:34:21.889Z,102523.00
2023-02-12T18:36:52.004Z,102522.13
2023-02-12T18:39:21.582Z,102516.84
2023-02-12T18:41:54.458Z,102518.59
2023-02-12T18:44:24.151Z,102522.09
2023-02-12T18:46:53.735Z,102515.94
2023-02-12T18:49:23.285Z,102508.91
2023-02-12T18:51:52.863Z,102515.09
2023-02-12T18:54:22.638Z,102517.75
2023-02-12T18:56:56.155Z,102523.03
2023-02-12T18:59:27.241Z,102519.53
2023-02-12T19:01:57.074Z,102517.75
2023-02-12T19:04:27.911Z,102520.44
2023-02-12T19:06:57.655Z,102512.50
2023-02-12T19:09:28.557Z,102516.91
2023-02-12T19:12:01.904Z,102515.16
2023-02-12T19:14:31.886Z,102516.03
2023-02-12T19:17:01.551Z,102514.28
2023-02-12T19:19:31.194Z,102516.06
2023-02-12T19:22:00.776Z,102515.16
2023-02-12T19:24:45.583Z,102511.66
2023-02-12T19:27:18.694Z,102516.03
2023-02-12T19:29:48.254Z,102514.31
2023-02-12T19:32:17.882Z,102513.41
2023-02-12T19:34:47.862Z,102520.47
2023-02-12T19:37:17.446Z,102516.09
2023-02-12T19:39:47.201Z,102512.53
2023-02-12T19:42:20.553Z,102509.03
2023-02-12T19:44:50.330Z,102508.16
2023-02-12T19:47:19.924Z,102506.41
2023-02-12T19:49:49.495Z,102504.66
2023-02-12T19:52:19.103Z,102507.31
2023-02-12T19:54:48.669Z,102502.91
2023-02-12T19:57:20.830Z,102499.38
2023-02-12T19:59:50.696Z,102502.03
2023-02-12T20:02:20.292Z,102505.56
2023-02-12T20:04:50.004Z,102502.03
2023-02-12T20:07:19.601Z,102503.81
2023-02-12T20:09:52.885Z,102502.03
2023-02-12T20:12:25.102Z,102509.09
2023-02-12T20:14:56.958Z,102508.19
2023-02-12T20:17:26.521Z,102506.47
2023-02-12T20:19:56.136Z,102507.34
2023-02-12T20:22:25.714Z,102495.00
2023-02-12T20:24:55.578Z,102495.88
2023-02-12T20:27:27.769Z,102494.97
2023-02-12T20:29:57.461Z,102500.25
2023-02-12T20:32:27.021Z,102490.59
2023-02-12T20:34:56.637Z,102494.09
2023-02-12T20:37:26.209Z,102500.28
2023-02-12T20:39:55.823Z,102501.16
2023-02-12T20:42:28.077Z,102504.66
2023-02-12T20:44:57.643Z,102491.47
2023-02-12T20:47:28.858Z,102500.28
2023-02-12T20:49:58.689Z,102498.50
2023-02-12T20:52:28.351Z,102499.38
2023-02-12T20:54:57.932Z,102501.13
2023-02-12T20:57:31.500Z,102500.25
2023-02-12T21:00:01.051Z,102501.13
2023-02-12T21:02:30.789Z,102494.94
2023-02-12T21:05:00.738Z,102502.88
2023-02-12T21:07:30.451Z,102496.72
2023-02-12T21:10:00.011Z,102494.06
2023-02-12T21:12:32.177Z,102499.34
2023-02-12T21:15:01.808Z,102495.84
2023-02-12T21:17:31.352Z,102494.94
2023-02-12T21:20:00.982Z,102493.22
2023-02-12T21:22:30.589Z,102492.31
2023-02-12T21:25:00.149Z,102492.31
2023-02-12T21:27:32.702Z,102494.06
2023-02-12T21:30:02.298Z,102491.41
2023-02-12T21:32:32.065Z,102495.84
2023-02-12T21:35:01.761Z,102494.06
2023-02-12T21:37:31.447Z,102495.81
2023-02-12T21:40:01.072Z,102500.22
2023-02-12T21:42:33.229Z,102504.59
2023-02-12T21:45:02.780Z,102503.72
2023-02-12T21:47:32.665Z,102503.72
2023-02-12T21:50:02.339Z,102507.25
2023-02-12T21:52:31.903Z,102508.16
2023-02-12T21:55:01.494Z,102509.03
2023-02-12T21:57:33.653Z,102502.00
2023-02-12T22:00:03.394Z,102506.38
2023-02-12T22:02:42.010Z,102509.00
2023-02-12T22:05:11.935Z,102509.88
2023-02-12T22:07:41.550Z,102503.72
2023-02-12T22:10:12.162Z,102511.66
2023-02-12T22:12:44.710Z,102497.53
2023-02-12T22:15:14.280Z,102504.63
2023-02-12T22:17:43.839Z,102501.97
2023-02-12T22:20:14.447Z,102507.25
2023-02-12T22:22:44.002Z,102503.72
2023-02-12T22:25:13.607Z,102500.22
2023-02-12T22:27:46.163Z,102494.94
2023-02-12T22:30:16.712Z,102504.66
2023-02-12T22:32:46.719Z,102497.59
2023-02-12T22:35:16.364Z,102492.31
2023-02-12T22:37:45.989Z,102498.50
2023-02-12T22:40:17.303Z,102494.09
2023-02-12T22:42:49.454Z,102499.38
2023-02-12T22:45:19.083Z,102499.41
2023-02-12T22:47:48.683Z,102499.41
2023-02-12T22:50:18.300Z,102500.28
2023-02-12T22:52:47.961Z,102496.75
2023-02-12T22:55:17.609Z,102495.00
2023-02-12T22:57:49.783Z,102502.06
2023-02-12T23:00:20.906Z,102513.50
2023-02-12T23:02:50.491Z,102495.00
2023-02-12T23:05:20.085Z,102506.44
2023-02-12T23:07:49.856Z,102506.44
2023-02-12T23:10:19.866Z,102502.94
2023-02-12T23:12:51.998Z,102501.16
2023-02-12T23:15:21.691Z,102504.72
2023-02-12T23:17:51.304Z,102505.59
2023-02-12T23:20:21.211Z,102507.34
2023-02-12T23:22:51.184Z,102507.34
2023-02-12T23:25:20.760Z,102507.34
2023-02-12T23:27:52.895Z,102498.56
2023-02-12T23:30:22.726Z,102504.72
2023-02-12T23:32:52.355Z,102501.22
2023-02-12T23:35:21.942Z,102508.28
2023-02-12T23:37:51.501Z,102509.16
2023-02-12T23:40:21.455Z,102503.00
2023-02-12T23:42:53.615Z,102505.63
2023-02-12T23:45:23.196Z,102505.59
2023-02-12T23:47:53.278Z,102504.72
2023-02-12T23:50:23.017Z,102501.22
2023-02-12T23:52:52.643Z,102505.63
2023-02-12T23:55:22.301Z,102498.56
2023-02-12T23:57:54.484Z,102488.88
